Time;durP1;ratioP1;P1;durP2;ratioP2;P2;SDS_P1;SDS_P2;PMS_P1;PMS_P2;Temp;Humidity;BMP_temperature;BMP_pressure;BME280_temperature;BME280_humidity;BME280_pressure;Samples;Min_cycle;Max_cycle;Signal;HPM_P1;HPM_P2
2024/04/01 00:01:26;;;;;;;;;;;24.10;34.90;;;;;;5058064;28;19924;-57
2024/04/01 00:03:51;;;;;;;;;;;24.10;34.90;;;;;;5074553;28;20222;-58
2024/04/01 00:06:17;;;;;;;;;;;24.10;34.90;;;;;;5074538;28;19928;-57
2024/04/01 00:08:43;;;;;;;;;;;24.10;35.50;;;;;;5074688;28;19925;-57
2024/04/01 00:11:09;;;;;;;;;;;24.10;34.90;;;;;;5074818;28;19925;-57
2024/04/01 00:13:35;;;;;;;;;;;24.10;34.90;;;;;;5074627;28;19933;-57
2024/04/01 00:16:01;;;;;;;;;;;24.10;34.90;;;;;;5074368;28;19929;-57
2024/04/01 00:18:27;;;;;;;;;;;24.10;34.90;;;;;;5074758;28;19924;-57
2024/04/01 00:20:56;;;;;;;;;;;24.10;35.00;;;;;;5073534;28;20284;-57
2024/04/01 00:23:23;;;;;;;;;;;24.10;35.00;;;;;;5074651;28;19924;-58
2024/04/01 00:25:49;;;;;;;;;;;24.10;35.00;;;;;;5074081;28;19932;-57
2024/04/01 00:28:15;;;;;;;;;;;24.10;35.00;;;;;;5074442;28;19928;-57
2024/04/01 00:30:41;;;;;;;;;;;24.10;35.00;;;;;;5074219;28;20301;-57
2024/04/01 00:33:09;;;;;;;;;;;24.10;35.10;;;;;;5074481;28;20011;-57
2024/04/01 00:35:41;;;;;;;;;;;24.10;35.10;;;;;;5074377;28;19928;-58
2024/04/01 00:38:07;;;;;;;;;;;24.10;35.20;;;;;;5074439;28;19924;-58
2024/04/01 00:40:36;;;;;;;;;;;24.10;35.20;;;;;;5074062;28;19932;-57
2024/04/01 00:43:03;;;;;;;;;;;24.10;35.20;;;;;;5074310;28;19924;-57
2024/04/01 00:45:29;;;;;;;;;;;24.10;35.20;;;;;;5073918;28;19937;-57
2024/04/01 00:47:59;;;;;;;;;;;24.10;35.20;;;;;;5074342;28;19936;-57
2024/04/01 00:50:27;;;;;;;;;;;24.10;35.20;;;;;;5073912;28;20394;-58
2024/04/01 00:52:53;;;;;;;;;;;24.10;35.20;;;;;;5074115;28;20294;-57
2024/04/01 00:55:20;;;;;;;;;;;24.10;35.30;;;;;;5057463;28;20259;-57
2024/04/01 00:57:46;;;;;;;;;;;24.10;35.30;;;;;;5073577;28;19924;-57
2024/04/01 01:00:12;;;;;;;;;;;24.10;35.20;;;;;;5073918;28;19924;-57
2024/04/01 01:02:38;;;;;;;;;;;24.10;35.20;;;;;;5073516;28;20027;-58
2024/04/01 01:05:04;;;;;;;;;;;24.10;35.20;;;;;;5073609;28;19974;-57
2024/04/01 01:07:32;;;;;;;;;;;24.00;35.20;;;;;;5073478;28;19924;-57
2024/04/01 01:09:58;;;;;;;;;;;24.10;35.20;;;;;;5073359;28;19931;-57
2024/04/01 01:12:24;;;;;;;;;;;24.10;35.20;;;;;;5057248;28;19924;-57
2024/04/01 01:14:50;;;;;;;;;;;24.00;35.20;;;;;;5073333;28;19932;-57
2024/04/01 01:17:16;;;;;;;;;;;24.10;35.20;;;;;;5073565;28;19932;-57
2024/04/01 01:19:43;;;;;;;;;;;24.10;35.20;;;;;;5073351;28;19925;-57
2024/04/01 01:22:09;;;;;;;;;;;24.10;35.20;;;;;;5073189;28;19932;-57
2024/04/01 01:24:34;;;;;;;;;;;24.10;35.30;;;;;;5073300;28;19928;-57
2024/04/01 01:27:01;;;;;;;;;;;24.00;35.80;;;;;;5073534;28;19924;-57
2024/04/01 01:29:29;;;;;;;;;;;24.00;35.20;;;;;;5073317;28;19970;-57
2024/04/01 01:32:01;;;;;;;;;;;24.00;35.20;;;;;;5073154;28;19929;-58
2024/04/01 01:34:27;;;;;;;;;;;24.00;35.30;;;;;;5073321;28;19993;-57
2024/04/01 01:36:53;;;;;;;;;;;24.00;35.30;;;;;;5073214;28;20286;-57
2024/04/01 01:39:19;;;;;;;;;;;24.00;35.30;;;;;;5073255;28;19931;-58
2024/04/01 01:41:45;;;;;;;;;;;24.00;35.30;;;;;;5072625;28;19929;-58
2024/04/01 01:44:11;;;;;;;;;;;24.00;35.30;;;;;;5072801;28;19925;-57
2024/04/01 01:46:37;;;;;;;;;;;24.00;35.30;;;;;;5072702;28;19932;-57
2024/04/01 01:49:03;;;;;;;;;;;24.00;35.40;;;;;;5073056;28;19925;-57
2024/04/01 01:51:31;;;;;;;;;;;24.00;35.40;;;;;;5072672;28;19928;-57
2024/04/01 01:53:57;;;;;;;;;;;24.00;35.40;;;;;;5072594;28;19947;-57
2024/04/01 01:56:23;;;;;;;;;;;24.00;35.40;;;;;;5072750;28;19931;-57
2024/04/01 01:58:49;;;;;;;;;;;24.00;35.40;;;;;;5072712;28;19929;-58
2024/04/01 02:01:15;;;;;;;;;;;24.00;35.40;;;;;;5072797;28;19938;-57
2024/04/01 02:03:44;;;;;;;;;;;24.00;35.50;;;;;;5072337;28;20386;-57
2024/04/01 02:06:10;;;;;;;;;;;24.00;35.40;;;;;;5072408;28;20309;-57
2024/04/01 02:08:36;;;;;;;;;;;24.00;35.40;;;;;;5072875;28;19924;-57
2024/04/01 02:11:02;;;;;;;;;;;24.00;35.40;;;;;;5072267;28;20030;-57
2024/04/01 02:13:28;;;;;;;;;;;24.00;35.40;;;;;;5072447;28;19962;-57
2024/04/01 02:16:13;;;;;;;;;;;24.00;35.40;;;;;;5072106;28;19924;-57
2024/04/01 02:18:39;;;;;;;;;;;24.00;35.40;;;;;;5072684;28;19924;-57
2024/04/01 02:21:05;;;;;;;;;;;24.00;35.40;;;;;;5072453;28;19936;-57
2024/04/01 02:23:34;;;;;;;;;;;24.00;35.50;;;;;;5072181;28;20281;-57
2024/04/01 02:26:03;;;;;;;;;;;24.00;35.40;;;;;;5072020;28;19932;-57
2024/04/01 02:28:30;;;;;;;;;;;24.00;35.40;;;;;;5072220;28;19924;-57
2024/04/01 02:30:56;;;;;;;;;;;24.00;35.40;;;;;;5072125;28;19925;-57
2024/04/01 02:33:22;;;;;;;;;;;24.00;35.40;;;;;;5072182;28;19924;-57
2024/04/01 02:35:48;;;;;;;;;;;24.00;35.40;;;;;;5071835;28;19978;-58
2024/04/01 02:38:13;;;;;;;;;;;24.00;35.40;;;;;;5072528;28;20035;-57
2024/04/01 02:40:39;;;;;;;;;;;24.00;35.50;;;;;;5072010;28;20321;-57
2024/04/01 02:43:05;;;;;;;;;;;24.00;35.40;;;;;;5072230;28;19928;-57
2024/04/01 02:45:31;;;;;;;;;;;24.00;35.40;;;;;;5078448;28;20011;-57
2024/04/01 02:47:57;;;;;;;;;;;24.00;35.40;;;;;;5078818;28;19931;-57
2024/04/01 02:50:23;;;;;;;;;;;24.00;35.50;;;;;;5078883;28;19925;-57
2024/04/01 02:52:49;;;;;;;;;;;24.00;35.50;;;;;;5078998;28;20302;-57
2024/04/01 02:55:17;;;;;;;;;;;24.00;35.50;;;;;;5078789;28;19936;-57
2024/04/01 02:57:43;;;;;;;;;;;24.00;35.50;;;;;;5078451;28;19929;-58
2024/04/01 03:00:16;;;;;;;;;;;24.00;35.60;;;;;;5078570;28;20004;-57
2024/04/01 03:02:42;;;;;;;;;;;24.00;35.60;;;;;;5078498;28;19924;-57
2024/04/01 03:05:08;;;;;;;;;;;24.00;35.60;;;;;;5078400;28;19924;-57
2024/04/01 03:07:34;;;;;;;;;;;24.00;35.70;;;;;;5078588;28;19925;-57
2024/04/01 03:10:00;;;;;;;;;;;23.90;35.70;;;;;;5078379;28;20357;-57
2024/04/01 03:12:26;;;;;;;;;;;23.90;35.70;;;;;;5078742;28;19924;-57
2024/04/01 03:14:52;;;;;;;;;;;23.90;35.70;;;;;;5061763;28;19924;-57
2024/04/01 03:17:18;;;;;;;;;;;24.00;35.70;;;;;;5078089;28;19924;-58
2024/04/01 03:19:44;;;;;;;;;;;23.90;35.70;;;;;;5078433;28;19932;-57
2024/04/01 03:22:10;;;;;;;;;;;23.90;35.70;;;;;;5078329;28;20378;-57
2024/04/01 03:24:36;;;;;;;;;;;23.90;35.70;;;;;;5078459;28;19978;-57
2024/04/01 03:27:02;;;;;;;;;;;23.90;35.70;;;;;;5078631;28;19932;-57
2024/04/01 03:29:29;;;;;;;;;;;23.90;35.70;;;;;;5077959;28;20238;-57
2024/04/01 03:31:55;;;;;;;;;;;24.00;35.80;;;;;;5078413;28;19951;-57
2024/04/01 03:34:21;;;;;;;;;;;23.90;35.70;;;;;;5061962;28;19936;-57
2024/04/01 03:36:51;;;;;;;;;;;23.90;36.30;;;;;;5078054;28;19924;-57
2024/04/01 03:39:17;;;;;;;;;;;23.90;35.70;;;;;;5078652;28;19932;-57
2024/04/01 03:41:43;;;;;;;;;;;23.90;35.70;;;;;;5078000;28;20011;-57
2024/04/01 03:44:09;;;;;;;;;;;23.90;35.70;;;;;;5078150;28;19925;-57
2024/04/01 03:46:35;;;;;;;;;;;23.90;35.70;;;;;;5078108;28;19986;-57
2024/04/01 03:49:00;;;;;;;;;;;23.90;35.70;;;;;;5078498;28;19924;-58
2024/04/01 03:51:27;;;;;;;;;;;23.90;35.70;;;;;;5078305;28;20369;-57
2024/04/01 03:53:52;;;;;;;;;;;23.90;35.70;;;;;;5077980;28;19935;-57
2024/04/01 03:56:18;;;;;;;;;;;23.90;36.30;;;;;;5057723;28;19924;-57
2024/04/01 03:58:45;;;;;;;;;;;23.90;35.70;;;;;;5075255;28;19928;-57
2024/04/01 04:01:11;;;;;;;;;;;23.90;35.70;;;;;;5074732;28;19925;-57
2024/04/01 04:03:37;;;;;;;;;;;23.90;35.70;;;;;;5075010;28;19924;-57
2024/04/01 04:06:03;;;;;;;;;;;23.90;35.80;;;;;;5074524;28;20451;-57
2024/04/01 04:08:29;;;;;;;;;;;23.90;36.30;;;;;;5075093;28;20283;-57
2024/04/01 04:10:55;;;;;;;;;;;23.90;35.80;;;;;;5074988;28;20285;-57
2024/04/01 04:13:21;;;;;;;;;;;23.90;35.80;;;;;;5074874;28;19991;-57
2024/04/01 04:15:47;;;;;;;;;;;23.90;35.80;;;;;;5074399;28;19925;-57
2024/04/01 04:18:12;;;;;;;;;;;23.90;35.90;;;;;;5074657;28;19925;-57
2024/04/01 04:20:38;;;;;;;;;;;23.90;35.90;;;;;;5074551;28;19972;-56
2024/04/01 04:23:04;;;;;;;;;;;23.90;35.90;;;;;;5074425;28;19932;-57
2024/04/01 04:25:31;;;;;;;;;;;23.90;35.90;;;;;;5074465;28;19998;-57
2024/04/01 04:27:57;;;;;;;;;;;23.90;36.00;;;;;;5074419;28;19925;-57
2024/04/01 04:30:23;;;;;;;;;;;23.90;36.00;;;;;;5074322;28;20393;-57
2024/04/01 04:32:49;;;;;;;;;;;23.90;36.00;;;;;;5074681;28;19924;-57
2024/04/01 04:35:15;;;;;;;;;;;23.90;36.00;;;;;;5074158;28;19936;-57
2024/04/01 04:37:40;;;;;;;;;;;23.90;36.00;;;;;;5074299;28;19924;-57
2024/04/01 04:40:10;;;;;;;;;;;23.90;35.80;;;;;;5074022;28;19924;-57
2024/04/01 04:42:35;;;;;;;;;;;23.90;35.70;;;;;;5074041;28;20373;-58
2024/04/01 04:45:02;;;;;;;;;;;23.90;35.70;;;;;;5074100;28;19928;-57
2024/04/01 04:47:28;;;;;;;;;;;23.90;35.60;;;;;;5073886;28;20382;-57
2024/04/01 04:49:53;;;;;;;;;;;23.90;35.50;;;;;;5074018;28;19982;-57
2024/04/01 04:52:19;;;;;;;;;;;23.90;35.40;;;;;;5074202;28;20282;-57
2024/04/01 04:54:45;;;;;;;;;;;23.90;35.40;;;;;;5073782;28;19928;-57
2024/04/01 04:57:11;;;;;;;;;;;24.00;35.40;;;;;;5073970;28;19932;-57
2024/04/01 04:59:37;;;;;;;;;;;24.00;35.40;;;;;;5073696;28;19924;-57
2024/04/01 05:02:09;;;;;;;;;;;24.00;35.40;;;;;;5073550;28;19929;-57
2024/04/01 05:04:35;;;;;;;;;;;24.00;35.30;;;;;;5073839;28;19928;-57
2024/04/01 05:07:01;;;;;;;;;;;24.00;35.30;;;;;;5073259;28;20389;-57
2024/04/01 05:09:27;;;;;;;;;;;24.00;35.30;;;;;;5073532;28;19924;-57
2024/04/01 05:11:56;;;;;;;;;;;24.00;35.30;;;;;;5073199;28;19975;-57
2024/04/01 05:14:22;;;;;;;;;;;24.00;35.20;;;;;;5073763;28;19974;-57
2024/04/01 05:16:48;;;;;;;;;;;24.00;35.30;;;;;;5073262;28;20332;-57
2024/04/01 05:19:16;;;;;;;;;;;24.00;35.20;;;;;;5073395;28;19925;-57
2024/04/01 05:21:42;;;;;;;;;;;24.00;35.20;;;;;;5073317;28;19939;-57
2024/04/01 05:24:08;;;;;;;;;;;24.00;35.10;;;;;;5073126;28;19932;-57
2024/04/01 05:26:34;;;;;;;;;;;24.10;35.10;;;;;;5073120;28;19924;-57
2024/04/01 05:28:59;;;;;;;;;;;24.10;35.00;;;;;;5073578;28;19948;-57
2024/04/01 05:31:25;;;;;;;;;;;24.10;35.00;;;;;;5073288;28;20290;-58
2024/04/01 05:33:52;;;;;;;;;;;24.20;35.00;;;;;;5073226;28;19933;-57
2024/04/01 05:36:19;;;;;;;;;;;24.20;34.90;;;;;;5072956;28;19928;-57
2024/04/01 05:38:45;;;;;;;;;;;24.30;34.90;;;;;;5073255;28;19929;-57
2024/04/01 05:41:11;;;;;;;;;;;24.30;34.80;;;;;;5072857;28;19924;-57
2024/04/01 05:43:37;;;;;;;;;;;24.30;34.70;;;;;;5073170;28;19924;-57
2024/04/01 05:46:03;;;;;;;;;;;24.30;34.70;;;;;;5072613;28;20416;-57
2024/04/01 05:48:29;;;;;;;;;;;24.40;34.70;;;;;;5072797;28;19931;-57
2024/04/01 05:50:55;;;;;;;;;;;24.40;34.60;;;;;;5073131;28;19935;-57
2024/04/01 05:53:22;;;;;;;;;;;24.40;34.60;;;;;;5072690;28;20418;-57
2024/04/01 05:55:48;;;;;;;;;;;24.50;34.60;;;;;;5072503;28;19977;-57
2024/04/01 05:58:13;;;;;;;;;;;24.50;34.50;;;;;;5072929;28;19928;-57
2024/04/01 06:00:39;;;;;;;;;;;24.50;34.40;;;;;;5072480;28;20400;-57
2024/04/01 06:03:05;;;;;;;;;;;24.50;34.40;;;;;;5072630;28;19936;-57
2024/04/01 06:05:32;;;;;;;;;;;24.60;34.40;;;;;;5072431;28;19924;-57
2024/04/01 06:07:58;;;;;;;;;;;24.60;34.30;;;;;;5071929;28;19931;-57
2024/04/01 06:10:25;;;;;;;;;;;24.70;34.30;;;;;;5072532;28;20442;-57
2024/04/01 06:12:52;;;;;;;;;;;24.70;34.20;;;;;;5072599;28;19947;-59
2024/04/01 06:15:18;;;;;;;;;;;24.70;34.20;;;;;;5055602;28;19925;-57
2024/04/01 06:17:44;;;;;;;;;;;24.80;34.20;;;;;;5072123;28;19935;-57
2024/04/01 06:20:13;;;;;;;;;;;24.80;34.10;;;;;;5071437;28;19928;-57
2024/04/01 06:22:39;;;;;;;;;;;24.80;34.10;;;;;;5072260;28;19974;-56
2024/04/01 06:25:05;;;;;;;;;;;24.80;34.00;;;;;;5072506;28;20036;-57
2024/04/01 06:27:31;;;;;;;;;;;24.90;34.10;;;;;;5072450;28;19924;-57
2024/04/01 06:29:57;;;;;;;;;;;24.90;34.00;;;;;;5072169;28;20343;-57
2024/04/01 06:32:23;;;;;;;;;;;24.90;34.00;;;;;;5072560;28;19931;-57
2024/04/01 06:34:50;;;;;;;;;;;24.90;33.90;;;;;;5072397;28;19924;-57
2024/04/01 06:37:16;;;;;;;;;;;24.90;33.90;;;;;;5072267;28;20005;-57
2024/04/01 06:39:41;;;;;;;;;;;25.00;33.90;;;;;;5071929;28;19924;-57
2024/04/01 06:42:07;;;;;;;;;;;25.00;33.90;;;;;;5071855;28;19963;-57
2024/04/01 06:44:33;;;;;;;;;;;25.00;33.90;;;;;;5071992;28;20388;-58
2024/04/01 06:46:59;;;;;;;;;;;25.00;33.80;;;;;;5071983;28;19924;-57
2024/04/01 06:49:25;;;;;;;;;;;25.10;33.90;;;;;;5072289;28;19978;-57
2024/04/01 06:51:51;;;;;;;;;;;25.10;33.80;;;;;;5071772;28;20393;-58
2024/04/01 06:54:16;;;;;;;;;;;25.10;33.80;;;;;;5072107;28;19985;-58
2024/04/01 06:56:42;;;;;;;;;;;25.10;33.80;;;;;;5071875;28;19932;-62
2024/04/01 06:59:08;;;;;;;;;;;25.20;33.80;;;;;;5070710;28;19972;-59
2024/04/01 07:01:34;;;;;;;;;;;25.20;33.80;;;;;;5051953;28;19932;-59
2024/04/01 07:04:00;;;;;;;;;;;25.20;33.70;;;;;;5052046;28;19929;-58
2024/04/01 07:06:26;;;;;;;;;;;25.20;33.70;;;;;;5051617;28;19928;-66
2024/04/01 07:08:52;;;;;;;;;;;25.20;33.60;;;;;;5052065;28;19971;-58
2024/04/01 07:11:17;;;;;;;;;;;25.30;33.70;;;;;;5051664;28;19925;-61
2024/04/01 07:13:44;;;;;;;;;;;25.30;33.70;;;;;;5051527;28;19925;-64
2024/04/01 07:16:10;;;;;;;;;;;25.30;33.60;;;;;;5051488;28;20341;-58
2024/04/01 07:18:38;;;;;;;;;;;25.30;33.60;;;;;;5051710;28;19924;-58
2024/04/01 07:21:04;;;;;;;;;;;25.30;33.50;;;;;;5051601;28;19924;-57
2024/04/01 07:23:30;;;;;;;;;;;25.40;33.60;;;;;;5051553;28;19975;-57
2024/04/01 07:25:55;;;;;;;;;;;25.40;33.50;;;;;;5050819;28;19929;-57
2024/04/01 07:28:21;;;;;;;;;;;25.40;33.50;;;;;;5051561;28;19925;-58
2024/04/01 07:30:47;;;;;;;;;;;25.40;33.50;;;;;;5053727;28;19972;-58
2024/04/01 07:33:13;;;;;;;;;;;25.40;33.40;;;;;;5055365;28;19925;-57
2024/04/01 07:35:39;;;;;;;;;;;25.50;33.40;;;;;;5038513;28;19925;-58
2024/04/01 07:38:05;;;;;;;;;;;25.50;33.40;;;;;;5055360;28;19925;-57
2024/04/01 07:40:31;;;;;;;;;;;25.50;33.40;;;;;;5055283;28;20287;-57
2024/04/01 07:42:56;;;;;;;;;;;25.60;33.40;;;;;;5055461;28;20366;-57
2024/04/01 07:45:22;;;;;;;;;;;25.60;33.30;;;;;;5055111;28;19924;-57
2024/04/01 07:47:48;;;;;;;;;;;25.60;33.30;;;;;;5054589;28;20317;-57
2024/04/01 07:50:14;;;;;;;;;;;25.60;33.30;;;;;;5054952;28;20293;-57
2024/04/01 07:52:40;;;;;;;;;;;25.70;33.30;;;;;;5055194;28;20046;-58
2024/04/01 07:55:06;;;;;;;;;;;25.70;33.30;;;;;;5054960;28;19951;-57
2024/04/01 07:57:32;;;;;;;;;;;25.70;33.30;;;;;;5054792;28;20432;-57
2024/04/01 07:59:58;;;;;;;;;;;25.70;33.20;;;;;;5038268;28;19924;-57
2024/04/01 08:02:24;;;;;;;;;;;25.70;33.20;;;;;;5054734;28;19924;-57
2024/04/01 08:04:51;;;;;;;;;;;25.80;33.20;;;;;;5054656;28;19924;-58
2024/04/01 08:07:17;;;;;;;;;;;25.80;33.20;;;;;;5054211;28;19925;-58
2024/04/01 08:09:43;;;;;;;;;;;25.80;33.10;;;;;;5038309;28;19925;-57
2024/04/01 08:12:09;;;;;;;;;;;25.90;33.10;;;;;;5055012;28;19979;-57
2024/04/01 08:14:35;;;;;;;;;;;25.90;33.10;;;;;;5054395;28;20298;-57
2024/04/01 08:17:00;;;;;;;;;;;25.90;33.60;;;;;;5072347;28;19925;-57
2024/04/01 08:19:28;;;;;;;;;;;25.90;33.00;;;;;;5074895;28;20015;-58
2024/04/01 08:21:54;;;;;;;;;;;26.00;33.10;;;;;;5074463;28;19928;-57
2024/04/01 08:24:20;;;;;;;;;;;26.00;33.00;;;;;;5074756;28;19925;-58
2024/04/01 08:26:45;;;;;;;;;;;26.00;33.00;;;;;;5074376;28;19990;-57
2024/04/01 08:29:13;;;;;;;;;;;26.00;33.00;;;;;;5074701;28;19924;-57
2024/04/01 08:31:39;;;;;;;;;;;26.00;33.00;;;;;;5074532;28;19999;-57
2024/04/01 08:34:05;;;;;;;;;;;26.10;33.00;;;;;;5074341;28;19928;-57
2024/04/01 08:36:31;;;;;;;;;;;26.10;33.00;;;;;;5057327;28;19924;-57
2024/04/01 08:38:57;;;;;;;;;;;26.10;32.90;;;;;;5074601;28;20187;-57
2024/04/01 08:41:30;;;;;;;;;;;26.10;32.90;;;;;;5073472;28;20294;-57
2024/04/01 08:44:13;;;;;;;;;;;26.10;32.90;;;;;;5073753;28;19991;-58
2024/04/01 08:46:40;;;;;;;;;;;26.10;32.80;;;;;;5073905;28;19925;-57
2024/04/01 08:49:11;;;;;;;;;;;26.20;32.80;;;;;;5074307;28;19932;-57
2024/04/01 08:51:37;;;;;;;;;;;26.20;32.90;;;;;;5074040;28;19925;-57
2024/04/01 08:54:04;;;;;;;;;;;26.20;32.80;;;;;;5073789;28;19932;-58
2024/04/01 08:56:31;;;;;;;;;;;26.20;32.80;;;;;;5074075;28;19947;-57
2024/04/01 08:58:57;;;;;;;;;;;26.20;32.80;;;;;;5057124;28;19924;-57
2024/04/01 09:01:24;;;;;;;;;;;26.20;32.80;;;;;;5073791;28;20365;-57
2024/04/01 09:03:50;;;;;;;;;;;26.20;32.80;;;;;;5073680;28;19924;-57
2024/04/01 09:06:16;;;;;;;;;;;26.30;32.80;;;;;;5073105;28;19925;-58
2024/04/01 09:08:42;;;;;;;;;;;26.30;32.80;;;;;;5073352;28;19931;-57
2024/04/01 09:11:08;;;;;;;;;;;26.30;32.70;;;;;;5073366;28;19943;-57
2024/04/01 09:13:34;;;;;;;;;;;26.30;32.70;;;;;;5073239;28;20389;-57
2024/04/01 09:16:01;;;;;;;;;;;26.40;32.70;;;;;;5073107;28;19924;-57
2024/04/01 09:18:29;;;;;;;;;;;26.40;32.60;;;;;;5073423;28;19924;-57
2024/04/01 09:20:56;;;;;;;;;;;26.50;32.60;;;;;;5073312;28;19928;-57
2024/04/01 09:23:22;;;;;;;;;;;26.50;32.60;;;;;;5073248;28;19931;-58
2024/04/01 09:25:50;;;;;;;;;;;26.50;32.50;;;;;;5072662;28;19924;-57
2024/04/01 09:28:16;;;;;;;;;;;26.50;32.40;;;;;;5073424;28;19974;-57
2024/04/01 09:30:41;;;;;;;;;;;26.60;32.40;;;;;;5073563;28;20328;-57
2024/04/01 09:33:07;;;;;;;;;;;26.60;32.40;;;;;;5073066;28;19924;-58
2024/04/01 09:35:34;;;;;;;;;;;26.60;32.30;;;;;;5072979;28;19978;-57
2024/04/01 09:37:59;;;;;;;;;;;26.70;32.30;;;;;;5073193;28;20294;-57
2024/04/01 09:40:25;;;;;;;;;;;26.70;32.30;;;;;;5072908;28;19928;-58
2024/04/01 09:42:58;;;;;;;;;;;26.70;32.20;;;;;;5072921;28;19924;-57
2024/04/01 09:45:24;;;;;;;;;;;26.70;32.20;;;;;;5072667;28;20404;-58
2024/04/01 09:47:52;;;;;;;;;;;26.80;32.80;;;;;;5072895;28;19948;-57
2024/04/01 09:50:18;;;;;;;;;;;26.80;32.20;;;;;;5072647;28;19977;-57
2024/04/01 09:52:44;;;;;;;;;;;26.80;32.20;;;;;;5072367;28;19925;-57
2024/04/01 09:55:15;;;;;;;;;;;26.80;32.20;;;;;;5072009;28;19932;-58
2024/04/01 09:58:01;;;;;;;;;;;26.80;32.10;;;;;;5072797;28;19924;-57
2024/04/01 10:00:41;;;;;;;;;;;26.80;32.10;;;;;;5072800;28;19924;-58
2024/04/01 10:03:30;;;;;;;;;;;26.80;32.10;;;;;;5072426;28;19925;-57
2024/04/01 10:06:15;;;;;;;;;;;26.90;32.10;;;;;;5072364;28;19928;-57
2024/04/01 10:09:01;;;;;;;;;;;26.90;32.10;;;;;;5072294;28;19987;-57
2024/04/01 10:11:47;;;;;;;;;;;26.90;32.10;;;;;;5072405;28;19924;-57
2024/04/01 10:14:32;;;;;;;;;;;26.90;32.10;;;;;;5072935;28;20001;-57
2024/04/01 10:17:16;;;;;;;;;;;26.90;32.20;;;;;;5072512;28;20282;-57
2024/04/01 10:19:53;;;;;;;;;;;26.90;32.20;;;;;;5072102;28;19931;-58
2024/04/01 10:22:38;;;;;;;;;;;27.00;32.20;;;;;;5072674;28;19928;-57
2024/04/01 10:25:15;;;;;;;;;;;26.90;32.10;;;;;;5058246;28;19924;-57
2024/04/01 10:27:59;;;;;;;;;;;27.00;32.20;;;;;;5072453;28;19931;-57
2024/04/01 10:30:44;;;;;;;;;;;27.00;32.20;;;;;;5072556;28;19947;-57
2024/04/01 10:33:22;;;;;;;;;;;27.00;32.10;;;;;;5058576;28;19925;-57
2024/04/01 10:36:04;;;;;;;;;;;27.00;32.10;;;;;;5072087;28;19924;-57
2024/04/01 10:38:50;;;;;;;;;;;27.00;32.00;;;;;;5072377;28;20294;-57
2024/04/01 10:41:29;;;;;;;;;;;27.10;32.10;;;;;;5072353;28;19931;-57
2024/04/01 10:44:12;;;;;;;;;;;27.10;32.10;;;;;;5072003;28;20472;-57
2024/04/01 10:46:45;;;;;;;;;;;27.10;32.00;;;;;;5071948;28;19925;-57
2024/04/01 10:49:31;;;;;;;;;;;27.10;32.60;;;;;;5072082;28;19924;-58
2024/04/01 10:52:09;;;;;;;;;;;27.10;31.90;;;;;;5072028;28;19924;-57
2024/04/01 10:54:55;;;;;;;;;;;27.10;31.90;;;;;;5072083;28;19924;-58
2024/04/01 10:57:35;;;;;;;;;;;27.10;31.90;;;;;;5072050;28;20324;-57
2024/04/01 11:00:13;;;;;;;;;;;27.10;31.90;;;;;;5071728;28;19936;-58
2024/04/01 11:02:59;;;;;;;;;;;27.10;31.90;;;;;;5072272;28;20045;-57
2024/04/01 11:05:45;;;;;;;;;;;27.10;31.90;;;;;;5073569;28;19947;-57
2024/04/01 11:08:29;;;;;;;;;;;27.20;31.90;;;;;;5062215;28;19932;-57
2024/04/01 11:11:09;;;;;;;;;;;27.20;31.90;;;;;;5059210;28;19924;-57
2024/04/01 11:13:37;;;;;;;;;;;27.20;31.90;;;;;;5075705;28;20393;-57
2024/04/01 11:16:04;;;;;;;;;;;27.20;32.00;;;;;;5075520;28;19928;-57
2024/04/01 11:18:36;;;;;;;;;;;27.10;31.90;;;;;;5075988;28;19924;-57
2024/04/01 11:21:13;;;;;;;;;;;27.20;32.00;;;;;;5075809;28;19947;-57
2024/04/01 11:23:45;;;;;;;;;;;27.10;31.90;;;;;;5075889;28;19924;-57
2024/04/01 11:26:18;;;;;;;;;;;27.20;32.00;;;;;;5075402;28;19928;-57
2024/04/01 11:29:03;;;;;;;;;;;27.10;32.50;;;;;;5075472;28;19931;-57
2024/04/01 11:31:30;;;;;;;;;;;27.20;32.00;;;;;;5075487;28;19978;-57
2024/04/01 11:34:16;;;;;;;;;;;27.20;31.90;;;;;;5075287;28;20389;-57
2024/04/01 11:36:48;;;;;;;;;;;27.20;31.90;;;;;;5061220;28;20377;-57
2024/04/01 11:39:16;;;;;;;;;;;27.20;31.90;;;;;;5075284;28;19928;-57
2024/04/01 11:41:47;;;;;;;;;;;27.30;31.90;;;;;;5075007;28;19925;-57
2024/04/01 11:44:17;;;;;;;;;;;27.30;31.90;;;;;;5075548;28;20003;-57
2024/04/01 11:46:44;;;;;;;;;;;27.30;31.90;;;;;;5075108;28;19924;-57
2024/04/01 11:49:10;;;;;;;;;;;27.30;32.40;;;;;;5075346;28;19947;-57
2024/04/01 11:51:36;;;;;;;;;;;27.30;31.90;;;;;;5075016;28;20382;-57
2024/04/01 11:54:03;;;;;;;;;;;27.30;32.40;;;;;;5075075;28;19928;-57
2024/04/01 11:56:39;;;;;;;;;;;27.30;31.90;;;;;;5075021;28;19932;-58
2024/04/01 11:59:06;;;;;;;;;;;27.30;31.80;;;;;;5075243;28;19924;-57
2024/04/01 12:01:34;;;;;;;;;;;27.30;31.80;;;;;;5074860;28;19925;-57
2024/04/01 12:04:00;;;;;;;;;;;27.30;31.80;;;;;;5075009;28;19924;-57
2024/04/01 12:06:28;;;;;;;;;;;27.30;31.80;;;;;;5074782;28;19928;-58
2024/04/01 12:08:54;;;;;;;;;;;27.30;31.80;;;;;;5075097;28;19924;-57
2024/04/01 12:11:20;;;;;;;;;;;27.30;31.80;;;;;;5074683;28;20443;-58
2024/04/01 12:13:46;;;;;;;;;;;27.30;31.80;;;;;;5074661;28;19932;-58
2024/04/01 12:16:13;;;;;;;;;;;27.30;31.80;;;;;;5074044;28;19932;-57
2024/04/01 12:18:47;;;;;;;;;;;27.30;31.80;;;;;;5074222;28;19932;-57
2024/04/01 12:21:15;;;;;;;;;;;27.40;31.80;;;;;;5074456;28;19925;-57
2024/04/01 12:23:43;;;;;;;;;;;27.40;31.80;;;;;;5074794;28;19925;-58
2024/04/01 12:26:12;;;;;;;;;;;27.40;31.80;;;;;;5074389;28;19928;-57
2024/04/01 12:28:38;;;;;;;;;;;27.30;32.30;;;;;;5074521;28;19924;-57
2024/04/01 12:31:04;;;;;;;;;;;27.40;31.70;;;;;;5074738;28;19954;-57
2024/04/01 12:33:31;;;;;;;;;;;27.40;31.70;;;;;;5074709;28;20293;-57
2024/04/01 12:35:58;;;;;;;;;;;27.40;31.70;;;;;;5074017;28;19924;-57
2024/04/01 12:38:24;;;;;;;;;;;27.40;31.70;;;;;;5074103;28;19924;-57
2024/04/01 12:40:50;;;;;;;;;;;27.40;31.60;;;;;;5074401;28;19925;-58
2024/04/01 12:43:17;;;;;;;;;;;27.40;31.60;;;;;;5074535;28;19928;-57
2024/04/01 12:45:44;;;;;;;;;;;27.40;31.60;;;;;;5074164;28;20287;-57
2024/04/01 12:48:12;;;;;;;;;;;27.40;31.50;;;;;;5073916;28;19924;-57
2024/04/01 12:50:38;;;;;;;;;;;27.40;31.50;;;;;;5073996;28;19932;-58
2024/04/01 12:53:16;;;;;;;;;;;27.50;31.50;;;;;;5074247;28;19928;-57
2024/04/01 12:55:47;;;;;;;;;;;27.50;31.50;;;;;;5073900;28;19924;-58
2024/04/01 12:58:26;;;;;;;;;;;27.50;31.50;;;;;;5074055;28;19932;-57
2024/04/01 13:01:04;;;;;;;;;;;27.50;31.40;;;;;;5073577;28;19928;-57
2024/04/01 13:03:47;;;;;;;;;;;27.50;31.40;;;;;;5073772;28;19924;-57
2024/04/01 13:06:32;;;;;;;;;;;27.50;31.40;;;;;;5073220;28;19932;-57
2024/04/01 13:09:03;;;;;;;;;;;27.50;31.90;;;;;;5073439;28;19924;-57
2024/04/01 13:11:49;;;;;;;;;;;27.60;31.40;;;;;;5073857;28;19924;-57
2024/04/01 13:14:34;;;;;;;;;;;27.60;31.30;;;;;;5073607;28;19932;-57
2024/04/01 13:17:12;;;;;;;;;;;27.60;31.20;;;;;;5073196;28;19924;-57
2024/04/01 13:19:48;;;;;;;;;;;27.60;31.20;;;;;;5073544;28;19925;-57
2024/04/01 13:22:24;;;;;;;;;;;27.60;31.10;;;;;;5073318;28;19931;-57
2024/04/01 13:24:52;;;;;;;;;;;27.60;31.10;;;;;;5073648;28;20286;-58
2024/04/01 13:27:38;;;;;;;;;;;27.60;31.00;;;;;;5073026;28;19932;-57
2024/04/01 13:30:11;;;;;;;;;;;27.60;31.00;;;;;;5059532;28;20320;-57
2024/04/01 13:32:53;;;;;;;;;;;27.70;31.00;;;;;;5073499;28;19932;-57
2024/04/01 13:35:38;;;;;;;;;;;27.70;31.00;;;;;;5073028;28;19982;-58
2024/04/01 13:38:13;;;;;;;;;;;27.70;30.80;;;;;;5073225;28;19935;-57
2024/04/01 13:40:49;;;;;;;;;;;27.70;30.70;;;;;;5072985;28;20298;-58
2024/04/01 13:43:27;;;;;;;;;;;27.70;30.70;;;;;;5072985;28;19925;-57
2024/04/01 13:46:09;;;;;;;;;;;27.70;30.70;;;;;;5072622;28;20382;-57
2024/04/01 13:48:54;;;;;;;;;;;27.70;30.70;;;;;;5073168;28;20290;-57
2024/04/01 13:51:40;;;;;;;;;;;27.70;30.70;;;;;;5072747;28;20337;-57
2024/04/01 13:54:24;;;;;;;;;;;27.70;30.70;;;;;;5072624;28;20381;-57
2024/04/01 13:57:05;;;;;;;;;;;27.70;30.70;;;;;;5072913;28;20278;-57
2024/04/01 13:59:44;;;;;;;;;;;27.70;30.70;;;;;;5072872;28;19932;-57
2024/04/01 14:02:29;;;;;;;;;;;27.70;30.70;;;;;;5056509;28;19948;-57
2024/04/01 14:05:13;;;;;;;;;;;27.70;30.60;;;;;;5072678;28;20399;-56
2024/04/01 14:07:58;;;;;;;;;;;27.70;30.60;;;;;;5072230;28;19931;-57
2024/04/01 14:10:44;;;;;;;;;;;27.70;30.60;;;;;;5072584;28;19932;-57
2024/04/01 14:13:29;;;;;;;;;;;27.70;30.50;;;;;;5072600;28;19925;-57
2024/04/01 14:16:15;;;;;;;;;;;27.70;30.50;;;;;;5058377;28;20378;-57
2024/04/01 14:18:49;;;;;;;;;;;27.70;30.50;;;;;;5072198;28;19932;-57
2024/04/01 14:21:15;;;;;;;;;;;27.70;30.40;;;;;;5072480;28;19947;-57
2024/04/01 14:23:40;;;;;;;;;;;27.70;30.40;;;;;;5072271;28;20370;-57
2024/04/01 14:26:06;;;;;;;;;;;27.80;30.40;;;;;;5071918;28;19924;-57
2024/04/01 14:28:32;;;;;;;;;;;27.80;30.40;;;;;;5072274;28;19924;-57